Time;durP1;ratioP1;P1;durP2;ratioP2;P2;SDS_P1;SDS_P2;PMS_P1;PMS_P2;Temp;Humidity;BMP_temperature;BMP_pressure;BME280_temperature;BME280_humidity;BME280_pressure;Samples;Min_cycle;Max_cycle;Signal;HPM_P1;HPM_P2
2023/01/11 00:00:17;;;;;;;4.30;3.90;;;;;;;;;;4995234;28;20222;-67
2023/01/11 00:02:44;;;;;;;5.45;3.95;;;;;;;;;;4986474;28;20579;-68
2023/01/11 00:05:10;;;;;;;5.30;3.85;;;;;;;;;;4971933;28;20562;-68
2023/01/11 00:07:36;;;;;;;7.10;4.65;;;;;;;;;;4992795;28;20188;-68
2023/01/11 00:10:03;;;;;;;4.15;3.75;;;;;;;;;;4968805;28;20667;-68
2023/01/11 00:12:29;;;;;;;5.57;4.25;;;;;;;;;;4991871;28;20184;-67
2023/01/11 00:14:55;;;;;;;4.50;4.07;;;;;;;;;;4991756;28;20184;-68
2023/01/11 00:17:20;;;;;;;4.78;3.78;;;;;;;;;;4995864;28;20305;-68
2023/01/11 00:19:46;;;;;;;4.90;4.17;;;;;;;;;;4999775;28;20221;-68
2023/01/11 00:22:11;;;;;;;4.40;3.67;;;;;;;;;;4986192;28;20195;-68
2023/01/11 00:24:36;;;;;;;6.15;3.67;;;;;;;;;;4974117;28;21641;-68
2023/01/11 00:27:02;;;;;;;6.05;4.03;;;;;;;;;;4978512;28;20663;-67
2023/01/11 00:29:27;;;;;;;7.18;4.35;;;;;;;;;;4994308;28;20187;-68
2023/01/11 00:31:53;;;;;;;6.28;4.50;;;;;;;;;;4989824;28;20191;-66
2023/01/11 00:34:19;;;;;;;4.90;4.07;;;;;;;;;;4994538;28;20237;-68
2023/01/11 00:36:45;;;;;;;5.15;4.03;;;;;;;;;;4984191;28;20195;-68
2023/01/11 00:39:10;;;;;;;6.70;4.07;;;;;;;;;;4995423;28;20194;-68
2023/01/11 00:49:47;;;;;;;5.28;3.70;;;;;;;;;;4989816;28;20560;-68
2023/01/11 00:52:13;;;;;;;5.35;3.80;;;;;;;;;;4985246;28;20270;-68
2023/01/11 00:54:40;;;;;;;4.70;3.63;;;;;;;;;;5006052;28;20625;-67
2023/01/11 00:57:06;;;;;;;4.78;4.07;;;;;;;;;;4999314;28;20241;-67
2023/01/11 00:59:33;;;;;;;4.22;3.35;;;;;;;;;;4993662;28;20192;-67
2023/01/11 01:01:58;;;;;;;6.82;4.13;;;;;;;;;;4976839;28;20242;-67
2023/01/11 01:04:24;;;;;;;6.10;3.50;;;;;;;;;;4992200;28;20215;-67
2023/01/11 01:06:49;;;;;;;4.10;3.70;;;;;;;;;;4986531;28;20239;-67
2023/01/11 01:09:14;;;;;;;4.97;3.97;;;;;;;;;;4992015;28;20199;-67
2023/01/11 01:11:40;;;;;;;5.05;4.38;;;;;;;;;;4987069;28;20191;-68
2023/01/11 01:16:50;;;;;;;7.03;4.50;;;;;;;;;;4978678;28;20195;-67
2023/01/11 01:19:16;;;;;;;5.43;4.38;;;;;;;;;;4991954;28;20192;-67
2023/01/11 01:21:41;;;;;;;4.60;4.03;;;;;;;;;;4990247;28;20245;-68
2023/01/11 01:24:07;;;;;;;8.18;4.43;;;;;;;;;;4984728;28;20241;-68
2023/01/11 01:26:32;;;;;;;5.78;4.65;;;;;;;;;;4986600;28;20239;-68
2023/01/11 01:28:58;;;;;;;6.43;4.45;;;;;;;;;;4995077;28;20322;-68
2023/01/11 01:31:23;;;;;;;5.85;4.78;;;;;;;;;;4991958;28;20196;-67
2023/01/11 01:33:48;;;;;;;5.78;4.53;;;;;;;;;;4990132;28;20453;-67
2023/01/11 01:36:14;;;;;;;5.63;4.20;;;;;;;;;;4989490;28;20202;-67
2023/01/11 01:38:39;;;;;;;7.07;4.30;;;;;;;;;;5011827;28;20644;-68
2023/01/11 01:41:05;;;;;;;9.70;4.60;;;;;;;;;;4980293;28;20192;-67
2023/01/11 01:43:52;;;;;;;5.40;4.60;;;;;;;;;;4988210;28;20238;-67
2023/01/11 01:46:18;;;;;;;7.25;4.50;;;;;;;;;;4987090;28;20199;-67
2023/01/11 01:48:49;;;;;;;6.57;4.20;;;;;;;;;;4993735;28;20199;-67
2023/01/11 01:51:19;;;;;;;5.88;4.53;;;;;;;;;;4990360;28;20219;-67
2023/01/11 01:53:48;;;;;;;8.43;4.75;;;;;;;;;;4993097;28;20183;-68
2023/01/11 01:56:18;;;;;;;4.45;4.05;;;;;;;;;;4986267;28;20195;-67
2023/01/11 01:58:51;;;;;;;6.30;3.97;;;;;;;;;;5005116;28;20190;-67
2023/01/11 02:04:05;;;;;;;6.57;4.47;;;;;;;;;;4991921;28;20294;-68
2023/01/11 02:06:31;;;;;;;6.05;4.00;;;;;;;;;;4983403;28;20223;-68
2023/01/11 02:09:02;;;;;;;6.78;4.05;;;;;;;;;;4988079;28;20721;-68
2023/01/11 02:15:02;;;;;;;5.35;3.72;;;;;;;;;;4980158;28;20219;-68
2023/01/11 02:17:27;;;;;;;6.18;3.88;;;;;;;;;;4988957;28;20542;-68
2023/01/11 02:20:03;;;;;;;5.13;3.70;;;;;;;;;;4988539;28;20187;-68
2023/01/11 02:22:49;;;;;;;7.00;4.00;;;;;;;;;;4986418;28;20675;-67
2023/01/11 02:25:31;;;;;;;5.75;3.88;;;;;;;;;;4986404;28;20227;-67
2023/01/11 02:28:11;;;;;;;6.00;3.65;;;;;;;;;;4988579;28;20207;-67
2023/01/11 02:30:52;;;;;;;5.88;3.47;;;;;;;;;;4996262;28;20194;-68
2023/01/11 02:33:34;;;;;;;5.10;3.60;;;;;;;;;;4987698;28;20201;-68
2023/01/11 02:36:32;;;;;;;4.70;3.83;;;;;;;;;;4988035;28;20325;-69
2023/01/11 02:39:29;;;;;;;5.07;2.80;;;;;;;;;;4989231;28;20221;-67
2023/01/11 02:45:21;;;;;;;8.65;3.53;;;;;;;;;;4987102;28;20215;-67
2023/01/11 02:47:58;;;;;;;4.28;2.80;;;;;;;;;;4990942;28;20218;-67
2023/01/11 02:50:31;;;;;;;3.55;3.20;;;;;;;;;;4993495;28;20695;-67
2023/01/11 02:53:08;;;;;;;4.50;3.22;;;;;;;;;;4989809;28;20199;-68
2023/01/11 02:55:42;;;;;;;4.55;3.13;;;;;;;;;;4986252;28;20211;-67
2023/01/11 02:58:10;;;;;;;5.90;2.60;;;;;;;;;;4989814;28;20191;-68
2023/01/11 03:00:38;;;;;;;3.35;2.45;;;;;;;;;;4979446;28;20265;-68
2023/01/11 03:03:05;;;;;;;3.95;2.80;;;;;;;;;;4984357;28;20253;-68
2023/01/11 03:05:32;;;;;;;3.63;2.55;;;;;;;;;;4986715;28;20187;-68
2023/01/11 03:08:16;;;;;;;3.35;2.45;;;;;;;;;;4966275;28;20192;-68
2023/01/11 03:11:00;;;;;;;3.60;2.20;;;;;;;;;;4975570;28;20187;-68
2023/01/11 03:13:28;;;;;;;3.17;2.38;;;;;;;;;;4994556;28;20188;-68
2023/01/11 03:16:10;;;;;;;2.30;2.10;;;;;;;;;;4989559;28;20844;-68
2023/01/11 03:18:51;;;;;;;2.58;2.10;;;;;;;;;;4989684;28;20425;-68
2023/01/11 03:21:23;;;;;;;2.85;2.53;;;;;;;;;;4992863;28;20737;-69
2023/01/11 03:24:11;;;;;;;2.65;2.05;;;;;;;;;;4996661;28;20734;-68
2023/01/11 03:26:50;;;;;;;2.30;2.10;;;;;;;;;;4993530;28;20301;-68
2023/01/11 03:29:28;;;;;;;2.65;1.80;;;;;;;;;;4994046;28;20187;-67
2023/01/11 03:32:26;;;;;;;2.03;1.92;;;;;;;;;;4987650;28;20175;-67
2023/01/11 03:35:23;;;;;;;2.50;2.30;;;;;;;;;;4992068;28;20234;-68
2023/01/11 03:37:56;;;;;;;2.58;1.73;;;;;;;;;;4988611;28;20226;-68
2023/01/11 03:40:40;;;;;;;2.30;2.10;;;;;;;;;;4999649;28;20187;-68
2023/01/11 03:43:12;;;;;;;2.08;1.90;;;;;;;;;;4987573;28;20187;-67
2023/01/11 03:46:15;;;;;;;2.70;2.00;;;;;;;;;;4998077;28;20260;-67
2023/01/11 03:48:49;;;;;;;2.15;1.83;;;;;;;;;;4980272;28;20269;-67
2023/01/11 03:51:21;;;;;;;2.30;2.10;;;;;;;;;;4993912;28;20257;-67
2023/01/11 03:53:49;;;;;;;3.47;2.17;;;;;;;;;;4996747;28;20234;-67
2023/01/11 03:56:19;;;;;;;3.03;2.20;;;;;;;;;;4980731;28;20184;-67
2023/01/11 03:58:45;;;;;;;2.45;2.00;;;;;;;;;;4981289;28;20356;-67
2023/01/11 04:01:11;;;;;;;2.70;1.98;;;;;;;;;;4982457;28;20219;-67
2023/01/11 04:03:36;;;;;;;2.20;2.00;;;;;;;;;;4984653;28;20203;-67
2023/01/11 04:06:02;;;;;;;2.70;2.15;;;;;;;;;;4986144;28;20722;-67
2023/01/11 04:08:28;;;;;;;2.42;1.70;;;;;;;;;;4986807;28;20282;-68
2023/01/11 04:10:53;;;;;;;2.13;1.90;;;;;;;;;;5003601;28;20202;-68
2023/01/11 04:13:19;;;;;;;2.35;2.15;;;;;;;;;;4992314;28;20187;-68
2023/01/11 04:15:44;;;;;;;2.15;1.95;;;;;;;;;;5004151;28;20191;-68
2023/01/11 04:18:09;;;;;;;2.70;1.95;;;;;;;;;;4995557;28;20198;-68
2023/01/11 04:20:37;;;;;;;1.90;1.80;;;;;;;;;;4989924;28;20237;-68
2023/01/11 04:23:05;;;;;;;2.00;1.83;;;;;;;;;;4979355;28;20241;-69
2023/01/11 04:25:31;;;;;;;3.60;1.95;;;;;;;;;;4987093;28;20227;-68
2023/01/11 04:27:56;;;;;;;2.10;1.95;;;;;;;;;;4987064;28;20188;-68
2023/01/11 04:30:22;;;;;;;2.95;1.90;;;;;;;;;;4988859;28;20214;-68
2023/01/11 04:32:47;;;;;;;1.73;1.63;;;;;;;;;;4979223;28;20290;-68
2023/01/11 04:35:13;;;;;;;1.60;1.50;;;;;;;;;;4988149;28;20649;-68
2023/01/11 04:37:38;;;;;;;1.83;1.73;;;;;;;;;;4988776;28;20191;-69
2023/01/11 04:40:04;;;;;;;2.00;1.60;;;;;;;;;;4989135;28;20196;-68
2023/01/11 04:42:30;;;;;;;1.80;1.70;;;;;;;;;;4988428;28;20262;-68
2023/01/11 04:44:55;;;;;;;2.08;1.90;;;;;;;;;;4986406;28;20237;-69
2023/01/11 04:47:22;;;;;;;1.92;1.70;;;;;;;;;;4987733;28;20195;-69
2023/01/11 04:49:48;;;;;;;2.30;1.58;;;;;;;;;;4997132;28;20192;-70
2023/01/11 04:52:16;;;;;;;1.60;1.50;;;;;;;;;;4982430;28;20579;-69
2023/01/11 04:54:41;;;;;;;3.75;1.73;;;;;;;;;;4984971;28;20187;-69
2023/01/11 04:57:11;;;;;;;1.75;1.65;;;;;;;;;;4988343;28;20621;-69
2023/01/11 04:59:36;;;;;;;1.63;1.40;;;;;;;;;;4987597;28;20231;-70
2023/01/11 05:02:02;;;;;;;6.45;1.80;;;;;;;;;;4985222;28;20307;-71
2023/01/11 05:04:27;;;;;;;1.92;1.80;;;;;;;;;;4992967;28;20249;-71
2023/01/11 05:06:53;;;;;;;1.70;1.60;;;;;;;;;;4988257;28;20187;-72
2023/01/11 05:09:19;;;;;;;2.20;1.55;;;;;;;;;;4979094;28;20655;-72
2023/01/11 05:11:44;;;;;;;4.10;1.73;;;;;;;;;;4983075;28;20771;-72
2023/01/11 05:14:10;;;;;;;2.30;1.63;;;;;;;;;;4980022;28;20180;-72
2023/01/11 05:16:36;;;;;;;1.70;1.60;;;;;;;;;;4989958;28;20612;-72
2023/01/11 05:19:03;;;;;;;1.52;1.42;;;;;;;;;;4990692;28;20191;-71
2023/01/11 05:21:40;;;;;;;1.30;1.20;;;;;;;;;;5009388;28;20207;-70
2023/01/11 05:24:09;;;;;;;2.65;1.45;;;;;;;;;;4990400;28;20223;-70
2023/01/11 05:26:37;;;;;;;1.20;1.10;;;;;;;;;;4990326;28;20263;-70
2023/01/11 05:29:04;;;;;;;1.20;1.10;;;;;;;;;;5003114;28;20465;-69
2023/01/11 05:31:33;;;;;;;1.40;1.00;;;;;;;;;;4968707;28;20192;-70
2023/01/11 05:33:59;;;;;;;0.70;0.70;;;;;;;;;;4990265;28;20209;-69
2023/01/11 05:36:26;;;;;;;1.20;0.60;;;;;;;;;;4994385;28;20183;-69
2023/01/11 05:38:52;;;;;;;0.95;0.47;;;;;;;;;;4998868;28;20781;-69
2023/01/11 05:41:20;;;;;;;0.50;0.50;;;;;;;;;;4990646;28;20234;-69
2023/01/11 05:46:33;;;;;;;1.58;0.50;;;;;;;;;;4990990;28;20695;-70
2023/01/11 05:48:59;;;;;;;0.93;0.30;;;;;;;;;;4988941;28;20195;-70
2023/01/11 05:51:26;;;;;;;2.08;0.40;;;;;;;;;;5002094;28;20669;-69
2023/01/11 05:53:52;;;;;;;0.17;0.17;;;;;;;;;;5004391;28;20524;-69
2023/01/11 05:56:18;;;;;;;0.20;0.20;;;;;;;;;;5003517;28;20728;-69
2023/01/11 05:58:47;;;;;;;0.32;0.10;;;;;;;;;;4985016;28;20180;-69
2023/01/11 06:01:12;;;;;;;0.30;0.13;;;;;;;;;;4991320;28;20286;-69
2023/01/11 06:03:38;;;;;;;1.38;0.95;;;;;;;;;;4981559;28;20301;-69
2023/01/11 06:06:03;;;;;;;0.90;0.43;;;;;;;;;;4992141;28;20824;-68
2023/01/11 06:08:29;;;;;;;4.18;0.70;;;;;;;;;;4989119;28;20194;-69
2023/01/11 06:10:55;;;;;;;1.67;1.35;;;;;;;;;;4988296;28;20654;-69
2023/01/11 06:13:25;;;;;;;1.98;1.65;;;;;;;;;;4979646;28;20183;-68
2023/01/11 06:15:56;;;;;;;4.95;2.25;;;;;;;;;;5002666;28;20277;-68
2023/01/11 06:18:22;;;;;;;4.75;3.10;;;;;;;;;;4995184;28;20776;-69
2023/01/11 06:20:49;;;;;;;6.22;2.80;;;;;;;;;;4999849;28;20191;-69
2023/01/11 06:23:15;;;;;;;4.47;3.60;;;;;;;;;;4992564;28;20600;-69
2023/01/11 06:25:41;;;;;;;8.57;4.22;;;;;;;;;;4998664;28;20235;-69
2023/01/11 06:28:06;;;;;;;5.57;4.32;;;;;;;;;;5000008;28;20217;-69
2023/01/11 06:30:31;;;;;;;7.22;4.88;;;;;;;;;;4995425;28;20587;-69
2023/01/11 06:33:06;;;;;;;9.43;6.13;;;;;;;;;;4991971;28;20199;-69
2023/01/11 06:35:37;;;;;;;8.32;5.78;;;;;;;;;;4990415;28;20199;-70
2023/01/11 06:38:02;;;;;;;10.27;6.68;;;;;;;;;;4989680;28;20206;-69
2023/01/11 06:40:27;;;;;;;11.75;7.55;;;;;;;;;;4990757;28;20207;-68
2023/01/11 06:42:53;;;;;;;11.90;7.00;;;;;;;;;;4987151;28;20183;-69
2023/01/11 06:45:18;;;;;;;13.27;7.53;;;;;;;;;;4990974;28;20239;-69
2023/01/11 06:47:44;;;;;;;12.63;8.20;;;;;;;;;;4987392;28;20230;-69
2023/01/11 06:50:09;;;;;;;13.05;7.60;;;;;;;;;;4990442;28;20558;-69
2023/01/11 06:52:35;;;;;;;13.73;7.57;;;;;;;;;;4980094;28;20213;-70
2023/01/11 06:55:01;;;;;;;12.65;7.63;;;;;;;;;;4990381;28;20242;-70
2023/01/11 06:57:27;;;;;;;10.90;7.63;;;;;;;;;;4990306;28;20204;-70
2023/01/11 06:59:52;;;;;;;14.13;8.70;;;;;;;;;;4991703;28;20262;-69
2023/01/11 07:02:18;;;;;;;14.77;7.90;;;;;;;;;;4984898;28;20208;-69
2023/01/11 07:04:43;;;;;;;13.55;8.25;;;;;;;;;;4989819;28;20219;-69
2023/01/11 07:07:09;;;;;;;12.85;8.13;;;;;;;;;;4989209;28;20198;-69
2023/01/11 07:09:34;;;;;;;16.27;9.00;;;;;;;;;;4982184;28;20187;-69
2023/01/11 07:11:59;;;;;;;16.70;9.07;;;;;;;;;;4987265;28;20188;-70
2023/01/11 07:14:25;;;;;;;15.68;9.73;;;;;;;;;;4976758;28;20202;-69
2023/01/11 07:16:50;;;;;;;15.43;9.23;;;;;;;;;;4990734;28;20188;-70
2023/01/11 07:19:17;;;;;;;17.48;10.25;;;;;;;;;;5002787;28;20630;-69
2023/01/11 07:21:42;;;;;;;16.35;10.77;;;;;;;;;;5005427;28;20195;-69
2023/01/11 07:24:08;;;;;;;17.92;10.68;;;;;;;;;;4995081;28;20645;-69
2023/01/11 07:26:36;;;;;;;16.73;10.75;;;;;;;;;;4998115;28;20230;-70
2023/01/11 07:29:01;;;;;;;20.17;11.38;;;;;;;;;;4995527;28;20186;-69
2023/01/11 07:31:27;;;;;;;19.65;11.02;;;;;;;;;;5000024;28;20199;-69
2023/01/11 07:33:52;;;;;;;20.98;11.30;;;;;;;;;;4980265;28;20192;-69
2023/01/11 07:36:17;;;;;;;20.73;11.20;;;;;;;;;;4984579;28;20192;-70
2023/01/11 07:38:43;;;;;;;20.67;11.60;;;;;;;;;;4986480;28;20186;-70
2023/01/11 07:43:52;;;;;;;20.65;10.88;;;;;;;;;;4993295;28;20257;-70
2023/01/11 07:46:17;;;;;;;23.85;12.00;;;;;;;;;;5000758;28;20666;-69
2023/01/11 07:48:43;;;;;;;22.85;10.98;;;;;;;;;;4988400;28;20199;-69
2023/01/11 07:51:08;;;;;;;25.05;10.65;;;;;;;;;;4999265;28;20285;-69
2023/01/11 07:53:34;;;;;;;23.63;11.00;;;;;;;;;;4982525;28;20408;-69
2023/01/11 07:55:59;;;;;;;23.30;10.20;;;;;;;;;;4986340;28;20656;-68
2023/01/11 07:58:24;;;;;;;25.77;9.48;;;;;;;;;;4982404;28;20196;-69
2023/01/11 08:00:50;;;;;;;28.08;9.15;;;;;;;;;;4986497;28;20218;-69
2023/01/11 08:03:15;;;;;;;27.10;8.80;;;;;;;;;;4984559;28;20184;-69
2023/01/11 08:05:40;;;;;;;18.90;8.45;;;;;;;;;;4990467;28;20333;-70
2023/01/11 08:08:06;;;;;;;23.15;7.75;;;;;;;;;;4990029;28;20238;-69
2023/01/11 08:10:33;;;;;;;25.55;7.85;;;;;;;;;;5002347;28;20305;-68
2023/01/11 08:15:43;;;;;;;29.85;7.95;;;;;;;;;;4995883;28;20449;-68
2023/01/11 08:18:10;;;;;;;24.55;6.78;;;;;;;;;;4984593;28;20469;-68
2023/01/11 08:20:36;;;;;;;23.73;6.38;;;;;;;;;;4993158;28;20249;-68
2023/01/11 08:23:07;;;;;;;22.27;6.78;;;;;;;;;;4983439;28;20734;-68
2023/01/11 08:25:33;;;;;;;21.95;6.05;;;;;;;;;;4991354;28;20717;-69
2023/01/11 08:28:03;;;;;;;24.13;6.20;;;;;;;;;;4989049;28;20275;-68
2023/01/11 08:30:29;;;;;;;23.15;5.97;;;;;;;;;;4992828;28;20602;-68
2023/01/11 08:32:56;;;;;;;27.15;5.32;;;;;;;;;;4992350;28;20187;-67
2023/01/11 08:35:22;;;;;;;27.00;5.68;;;;;;;;;;4989812;28;20178;-68
2023/01/11 08:37:47;;;;;;;22.88;5.43;;;;;;;;;;4988427;28;20207;-67
2023/01/11 08:40:12;;;;;;;22.35;4.53;;;;;;;;;;4989477;28;20210;-68
2023/01/11 08:42:38;;;;;;;19.05;4.72;;;;;;;;;;4989801;28;20187;-68
2023/01/11 08:45:03;;;;;;;26.88;4.55;;;;;;;;;;4989407;28;20208;-68
2023/01/11 08:47:29;;;;;;;19.27;5.03;;;;;;;;;;4987779;28;20259;-68
2023/01/11 08:49:54;;;;;;;23.17;4.35;;;;;;;;;;4993250;28;20222;-67
2023/01/11 08:52:20;;;;;;;19.35;4.15;;;;;;;;;;4992916;28;20278;-67
2023/01/11 08:54:45;;;;;;;20.45;4.10;;;;;;;;;;4990334;28;20199;-67
2023/01/11 08:57:11;;;;;;;23.92;4.40;;;;;;;;;;4999635;28;20615;-67
2023/01/11 08:59:36;;;;;;;19.38;4.15;;;;;;;;;;4990967;28;20270;-67
2023/01/11 09:02:04;;;;;;;21.90;3.55;;;;;;;;;;4991647;28;20675;-67
2023/01/11 09:04:29;;;;;;;27.13;4.25;;;;;;;;;;4992908;28;20214;-66
2023/01/11 09:06:54;;;;;;;14.95;3.25;;;;;;;;;;4992840;28;20569;-67
2023/01/11 09:09:20;;;;;;;22.98;3.53;;;;;;;;;;4994824;28;20546;-67
2023/01/11 09:11:55;;;;;;;20.52;3.22;;;;;;;;;;5002204;28;20629;-67
2023/01/11 09:14:23;;;;;;;24.80;3.58;;;;;;;;;;4992834;28;20186;-67
2023/01/11 09:16:49;;;;;;;15.38;3.90;;;;;;;;;;4991579;28;20251;-66
2023/01/11 09:19:15;;;;;;;24.40;4.45;;;;;;;;;;4993859;28;20647;-67
2023/01/11 09:21:40;;;;;;;22.65;3.45;;;;;;;;;;4995659;28;20227;-67
2023/01/11 09:24:06;;;;;;;17.73;3.55;;;;;;;;;;4990596;28;20221;-67
2023/01/11 09:26:31;;;;;;;12.23;3.03;;;;;;;;;;4993219;28;20238;-66
2023/01/11 09:28:57;;;;;;;20.75;3.80;;;;;;;;;;4992712;28;20192;-67
2023/01/11 09:31:22;;;;;;;13.48;2.75;;;;;;;;;;4992084;28;20612;-67
2023/01/11 09:33:48;;;;;;;15.85;2.92;;;;;;;;;;4985695;28;20243;-67
2023/01/11 09:36:13;;;;;;;19.15;3.60;;;;;;;;;;4987222;28;20182;-66
2023/01/11 09:38:40;;;;;;;15.18;3.03;;;;;;;;;;5008111;28;20273;-67
2023/01/11 09:41:32;;;;;;;16.17;3.00;;;;;;;;;;4997657;28;20632;-67
2023/01/11 09:44:10;;;;;;;18.52;2.70;;;;;;;;;;4986482;28;20694;-66
2023/01/11 09:46:40;;;;;;;19.95;3.17;;;;;;;;;;4991439;28;20195;-67
2023/01/11 09:49:19;;;;;;;27.17;4.47;;;;;;;;;;4987566;28;20498;-66
2023/01/11 09:51:46;;;;;;;14.05;3.20;;;;;;;;;;4983179;28;20203;-66
2023/01/11 09:54:22;;;;;;;14.95;3.17;;;;;;;;;;4986876;28;20184;-66
2023/01/11 09:56:59;;;;;;;15.32;2.75;;;;;;;;;;4989702;28;20720;-66
2023/01/11 09:59:41;;;;;;;20.25;3.08;;;;;;;;;;4986499;28;20717;-67
2023/01/11 10:02:40;;;;;;;14.20;2.63;;;;;;;;;;4977111;28;20183;-66
2023/01/11 10:05:22;;;;;;;19.63;3.28;;;;;;;;;;4980559;28;20274;-66
2023/01/11 10:08:19;;;;;;;15.75;3.25;;;;;;;;;;4997522;28;20226;-66
2023/01/11 10:10:56;;;;;;;18.35;2.67;;;;;;;;;;4997988;28;20192;-67
2023/01/11 10:13:31;;;;;;;19.10;2.85;;;;;;;;;;4988755;28;20437;-67
2023/01/11 10:16:23;;;;;;;12.43;2.15;;;;;;;;;;4990604;28;20195;-66
2023/01/11 10:19:15;;;;;;;19.98;2.60;;;;;;;;;;4979268;28;20206;-66
2023/01/11 10:21:52;;;;;;;14.73;2.35;;;;;;;;;;4993910;28;20195;-66
2023/01/11 10:24:20;;;;;;;18.08;2.75;;;;;;;;;;4987900;28;20215;-67
2023/01/11 10:26:48;;;;;;;13.32;2.38;;;;;;;;;;5009123;28;20250;-66
2023/01/11 10:37:26;;;;;;;16.92;2.92;;;;;;;;;;5008939;28;20546;-67
2023/01/11 10:40:37;;;;;;;10.80;2.45;;;;;;;;;;5009657;28;20724;-67
2023/01/11 10:43:15;;;;;;;16.52;2.80;;;;;;;;;;5006629;28;20174;-66
2023/01/11 10:45:52;;;;;;;16.60;3.50;;;;;;;;;;5000381;28;20347;-66
2023/01/11 10:48:33;;;;;;;15.20;2.65;;;;;;;;;;5001583;28;20215;-67
2023/01/11 10:51:23;;;;;;;11.95;2.30;;;;;;;;;;5002606;28;20193;-67
2023/01/11 10:53:58;;;;;;;15.38;2.55;;;;;;;;;;5006409;28;20210;-67
2023/01/11 10:57:00;;;;;;;11.77;2.63;;;;;;;;;;5005555;28;20189;-67
2023/01/11 10:59:51;;;;;;;17.02;3.05;;;;;;;;;;5001952;28;20522;-66
2023/01/11 11:02:38;;;;;;;20.30;2.67;;;;;;;;;;4999956;28;20663;-67
2023/01/11 11:05:33;;;;;;;21.35;3.53;;;;;;;;;;5003489;28;20210;-66
2023/01/11 11:08:27;;;;;;;15.82;2.65;;;;;;;;;;5008050;28;20225;-67
2023/01/11 11:11:15;;;;;;;20.95;3.30;;;;;;;;;;4997667;28;20205;-66
2023/01/11 11:13:48;;;;;;;19.95;3.15;;;;;;;;;;4999228;28;20265;-66
2023/01/11 11:16:22;;;;;;;19.63;2.75;;;;;;;;;;4989398;28;20190;-66
2023/01/11 11:18:52;;;;;;;22.67;3.78;;;;;;;;;;4995575;28;20175;-66
2023/01/11 11:21:22;;;;;;;22.52;3.25;;;;;;;;;;5003492;28;20191;-66
2023/01/11 11:23:55;;;;;;;22.10;3.10;;;;;;;;;;5000363;28;20511;-66
2023/01/11 11:26:23;;;;;;;18.50;3.30;;;;;;;;;;4997584;28;20704;-66
2023/01/11 11:29:00;;;;;;;18.65;3.13;;;;;;;;;;4999691;28;20261;-66
2023/01/11 11:31:27;;;;;;;17.77;3.17;;;;;;;;;;5001972;28;20197;-67
2023/01/11 11:33:53;;;;;;;23.58;3.42;;;;;;;;;;4999788;28;20205;-66
2023/01/11 11:36:18;;;;;;;20.60;3.10;;;;;;;;;;5004639;28;20196;-66
2023/01/11 11:39:07;;;;;;;16.98;3.33;;;;;;;;;;5001146;28;20188;-66
2023/01/11 11:41:51;;;;;;;14.60;2.70;;;;;;;;;;5000884;28;20194;-66
2023/01/11 11:44:20;;;;;;;23.85;3.53;;;;;;;;;;5000887;28;20215;-65
2023/01/11 11:47:14;;;;;;;22.35;3.35;;;;;;;;;;5005713;28;20654;-66
2023/01/11 11:49:40;;;;;;;23.13;3.35;;;;;;;;;;4998180;28;20467;-66
2023/01/11 11:52:15;;;;;;;20.52;3.50;;;;;;;;;;5004452;28;20206;-65
2023/01/11 11:54:52;;;;;;;17.55;3.35;;;;;;;;;;4988836;28;20179;-66
2023/01/11 11:57:22;;;;;;;20.13;4.05;;;;;;;;;;4989687;28;20190;-66
2023/01/11 11:59:51;;;;;;;21.63;3.75;;;;;;;;;;4998332;28;20238;-66
2023/01/11 12:02:24;;;;;;;24.85;3.35;;;;;;;;;;4987477;28;20277;-66
2023/01/11 12:04:50;;;;;;;17.92;3.30;;;;;;;;;;4984190;28;20473;-66
2023/01/11 12:07:23;;;;;;;27.83;4.18;;;;;;;;;;4988473;28;20671;-66
2023/01/11 12:09:57;;;;;;;20.70;3.38;;;;;;;;;;4982569;28;20248;-66
2023/01/11 12:12:22;;;;;;;23.67;3.83;;;;;;;;;;4975349;28;20518;-66
2023/01/11 12:15:28;;;;;;;19.90;4.40;;;;;;;;;;4976246;28;20196;-66
2023/01/11 12:17:54;;;;;;;15.15;3.63;;;;;;;;;;4939142;28;20193;-65
2023/01/11 12:20:22;;;;;;;16.02;4.53;;;;;;;;;;4946455;28;20279;-66
2023/01/11 12:23:15;;;;;;;19.92;4.15;;;;;;;;;;4967212;28;20418;-66
2023/01/11 12:25:51;;;;;;;20.05;4.10;;;;;;;;;;4980315;28;20303;-66
2023/01/11 12:28:19;;;;;;;26.90;5.47;;;;;;;;;;4995357;28;20244;-65
2023/01/11 12:31:03;;;;;;;18.77;5.05;;;;;;;;;;4993310;28;20651;-65
2023/01/11 12:33:44;;;;;;;18.77;4.32;;;;;;;;;;4981995;28;20194;-66
2023/01/11 12:36:31;;;;;;;23.73;4.28;;;;;;;;;;4988250;28;20191;-65
2023/01/11 12:39:04;;;;;;;17.63;4.95;;;;;;;;;;4988637;28;20636;-66
2023/01/11 12:42:07;;;;;;;22.02;4.40;;;;;;;;;;4991984;28;20207;-65
2023/01/11 12:44:54;;;;;;;16.23;5.03;;;;;;;;;;4990527;28;20211;-66
2023/01/11 12:47:34;;;;;;;17.17;4.20;;;;;;;;;;4989361;28;20257;-66
2023/01/11 12:50:15;;;;;;;16.73;4.30;;;;;;;;;;4988410;28;20183;-66
2023/01/11 12:52:57;;;;;;;19.45;4.32;;;;;;;;;;4996661;28;20194;-66
2023/01/11 12:55:32;;;;;;;23.85;3.75;;;;;;;;;;4984076;28;20184;-66
2023/01/11 12:58:09;;;;;;;19.13;3.20;;;;;;;;;;4986798;28;20274;-66
2023/01/11 13:01:26;;;;;;;15.82;3.42;;;;;;;;;;4984841;28;20253;-66
2023/01/11 13:04:25;;;;;;;16.55;4.15;;;;;;;;;;4982939;28;20211;-66
2023/01/11 13:07:07;;;;;;;19.02;3.35;;;;;;;;;;4988779;28;20196;-67
2023/01/11 13:09:54;;;;;;;19.75;4.32;;;;;;;;;;4988593;28;20188;-66
2023/01/11 13:12:41;;;;;;;25.80;4.15;;;;;;;;;;4982417;28;20190;-67
2023/01/11 13:15:30;;;;;;;18.48;3.55;;;;;;;;;;4990597;28;20191;-66
2023/01/11 13:18:04;;;;;;;24.38;4.30;;;;;;;;;;5007537;28;20198;-66
2023/01/11 13:20:36;;;;;;;19.60;3.38;;;;;;;;;;4985249;28;20179;-67
2023/01/11 13:23:09;;;;;;;22.35;3.55;;;;;;;;;;4992104;28;20179;-67
2023/01/11 13:25:39;;;;;;;13.30;2.63;;;;;;;;;;4984308;28;20569;-67
2023/01/11 13:28:18;;;;;;;15.10;2.75;;;;;;;;;;5003497;28;20417;-66
2023/01/11 13:30:46;;;;;;;10.40;2.65;;;;;;;;;;4988500;28;20184;-67
2023/01/11 13:33:20;;;;;;;12.13;2.00;;;;;;;;;;4994244;28;20651;-66
2023/01/11 13:35:59;;;;;;;15.65;3.03;;;;;;;;;;4982117;28;20179;-67
2023/01/11 13:38:39;;;;;;;17.58;3.28;;;;;;;;;;4992488;28;20234;-67
2023/01/11 13:41:20;;;;;;;15.80;2.80;;;;;;;;;;4989192;28;20221;-66
2023/01/11 13:43:58;;;;;;;13.43;2.10;;;;;;;;;;4974706;28;20196;-66
2023/01/11 13:47:01;;;;;;;14.50;2.50;;;;;;;;;;4974132;28;20604;-66
2023/01/11 13:49:54;;;;;;;17.13;2.35;;;;;;;;;;4992871;28;20222;-66
2023/01/11 13:52:31;;;;;;;15.70;2.20;;;;;;;;;;4993015;28;20265;-67
2023/01/11 13:55:23;;;;;;;16.52;2.25;;;;;;;;;;4995803;28;20639;-66
2023/01/11 13:58:04;;;;;;;16.63;2.15;;;;;;;;;;4991613;28;20459;-66
2023/01/11 14:00:48;;;;;;;19.38;2.88;;;;;;;;;;4972349;28;20266;-66
2023/01/11 14:03:26;;;;;;;15.68;1.95;;;;;;;;;;4990408;28;20187;-67
2023/01/11 14:06:07;;;;;;;14.88;2.75;;;;;;;;;;4989717;28;20227;-66
2023/01/11 14:08:59;;;;;;;16.65;2.78;;;;;;;;;;4996422;28;20188;-67
2023/01/11 14:11:33;;;;;;;13.70;2.33;;;;;;;;;;4984699;28;20218;-67
2023/01/11 14:14:36;;;;;;;11.43;2.10;;;;;;;;;;5003916;28;20344;-67
2023/01/11 14:17:24;;;;;;;17.02;3.38;;;;;;;;;;5007000;28;20191;-67
2023/01/11 14:20:05;;;;;;;19.55;2.60;;;;;;;;;;5009432;28;20179;-67
2023/01/11 14:22:55;;;;;;;16.52;2.30;;;;;;;;;;5001996;28;20727;-67
2023/01/11 14:25:40;;;;;;;13.60;2.45;;;;;;;;;;5001038;28;20610;-67
2023/01/11 14:28:42;;;;;;;24.38;2.88;;;;;;;;;;5002954;28;20253;-66
2023/01/11 14:31:17;;;;;;;15.57;2.40;;;;;;;;;;4999464;28;20190;-66
2023/01/11 14:33:57;;;;;;;17.80;2.33;;;;;;;;;;5003178;28;20214;-66
2023/01/11 14:36:31;;;;;;;20.52;3.00;;;;;;;;;;4990939;28;20196;-67
2023/01/11 14:39:30;;;;;;;20.80;3.15;;;;;;;;;;4986988;28;20668;-67
2023/01/11 14:42:19;;;;;;;16.27;3.50;;;;;;;;;;4980642;28;20193;-66
2023/01/11 14:45:12;;;;;;;15.80;2.55;;;;;;;;;;4975884;28;20302;-67
2023/01/11 14:47:48;;;;;;;19.92;3.45;;;;;;;;;;4981953;28;20643;-67
2023/01/11 14:50:26;;;;;;;17.65;2.80;;;;;;;;;;4997701;28;20187;-67
2023/01/11 14:52:56;;;;;;;19.30;2.67;;;;;;;;;;4996912;28;20196;-67
2023/01/11 14:55:28;;;;;;;23.33;3.28;;;;;;;;;;4997932;28;20195;-66
2023/01/11 14:58:30;;;;;;;16.33;2.35;;;;;;;;;;4993125;28;20186;-66
2023/01/11 15:00:55;;;;;;;20.00;2.50;;;;;;;;;;4955635;28;20279;-67
2023/01/11 15:03:21;;;;;;;18.80;2.45;;;;;;;;;;4985770;28;20609;-67
2023/01/11 15:05:53;;;;;;;14.13;2.63;;;;;;;;;;4993586;28;20688;-67
2023/01/11 15:08:22;;;;;;;21.23;3.40;;;;;;;;;;4992258;28;20183;-67
2023/01/11 15:11:19;;;;;;;17.08;2.80;;;;;;;;;;4997437;28;20937;-67
2023/01/11 15:13:48;;;;;;;16.80;2.10;;;;;;;;;;4989203;28;20607;-67
2023/01/11 15:19:11;;;;;;;20.92;3.20;;;;;;;;;;5004063;28;20281;-67
2023/01/11 15:21:46;;;;;;;12.32;2.42;;;;;;;;;;4996241;28;20191;-67
2023/01/11 15:24:30;;;;;;;22.15;3.22;;;;;;;;;;5002189;28;20277;-67
2023/01/11 15:26:58;;;;;;;14.32;2.28;;;;;;;;;;4987626;28;20229;-67
2023/01/11 15:29:29;;;;;;;15.32;3.00;;;;;;;;;;4989766;28;20242;-67
2023/01/11 15:32:00;;;;;;;15.93;2.67;;;;;;;;;;4985151;28;20692;-67
2023/01/11 15:34:39;;;;;;;23.25;3.25;;;;;;;;;;4983397;28;20191;-67
2023/01/11 15:37:42;;;;;;;15.13;2.40;;;;;;;;;;4988466;28;20206;-67
2023/01/11 15:40:26;;;;;;;23.83;2.97;;;;;;;;;;4992059;28;20194;-66
2023/01/11 15:43:28;;;;;;;17.27;2.60;;;;;;;;;;4994254;28;20202;-67
2023/01/11 15:49:34;;;;;;;15.73;2.42;;;;;;;;;;4988080;28;20655;-67
2023/01/11 15:52:53;;;;;;;21.13;3.05;;;;;;;;;;4987459;28;20196;-67